Stewartstown, Pennsylvania
Current Conditions -  °F | °C
As of 6:04 PM on Thursday 27 Nov 2014 (Local Time) from KTHV Reporting Station
Overcast Overcast  
Wind Chill: 35°   Ceiling: 6500
Heat Index: 35°   Visibility: 9mi
Dew Point: 31°   Wind: 3mph
Humidity: 85%   Direction: 360°N
Pressure: 30.08"   Gusts: NA
Location:  39.75°N, 76.59°W
Report Text: KTHV 272304Z AUTO 36003KT 9SM SCT020 OVC065 02/M01 A3008 RMK AO2 SNE01 P0000 T00171006
Loading
Personal Weather Stations






























Interactive Weather Map New forecast layout! Learn more

10-Day Weather Forecast

Advertisements
Track Severe Weather on mobile